createdAt,value
2022-09-04T00:01:24.302Z,5.53
2022-09-04T00:04:11.997Z,5.73
2022-09-04T00:06:47.467Z,5.80
2022-09-04T00:09:49.535Z,5.92
2022-09-04T00:12:26.732Z,5.90
2022-09-04T00:15:15.371Z,5.70
2022-09-04T00:18:02.705Z,5.40
2022-09-04T00:20:47.077Z,5.62
2022-09-04T00:26:13.904Z,5.10
2022-09-04T00:28:49.624Z,5.37
2022-09-04T00:31:38.655Z,5.17
2022-09-04T00:34:24.933Z,5.85
2022-09-04T00:36:58.330Z,6.53
2022-09-04T00:39:31.263Z,5.73
2022-09-04T00:42:15.416Z,5.15
2022-09-04T00:45:04.721Z,5.57
2022-09-04T00:47:40.607Z,5.80
2022-09-04T00:50:21.297Z,6.32
2022-09-04T00:52:59.885Z,6.40
2022-09-04T00:55:44.321Z,6.20
2022-09-04T00:58:47.843Z,5.95
2022-09-04T01:01:26.491Z,5.27
2022-09-04T01:04:20.623Z,6.30
2022-09-04T01:07:12.765Z,5.80
2022-09-04T01:10:04.906Z,4.97
2022-09-04T01:12:40.714Z,5.93
2022-09-04T01:15:18.417Z,5.80
2022-09-04T01:18:06.536Z,5.27
2022-09-04T01:20:48.344Z,5.00
2022-09-04T01:23:26.961Z,5.27
2022-09-04T01:26:20.407Z,5.23
2022-09-04T01:28:53.883Z,4.80
2022-09-04T01:31:41.715Z,5.25
2022-09-04T01:34:20.223Z,5.47
2022-09-04T01:37:01.694Z,5.63
2022-09-04T01:39:34.744Z,4.90
2022-09-04T01:42:11.822Z,5.28
2022-09-04T01:44:41.589Z,6.17
2022-09-04T01:47:32.294Z,6.30
2022-09-04T01:50:10.654Z,5.50
2022-09-04T01:52:52.114Z,6.70
2022-09-04T01:55:36.883Z,7.22
2022-09-04T01:58:13.594Z,6.60
2022-09-04T02:03:27.575Z,6.60
2022-09-04T02:06:24.045Z,6.63
2022-09-04T02:09:11.567Z,6.20
2022-09-04T02:11:45.161Z,6.73
2022-09-04T02:14:34.224Z,6.90
2022-09-04T02:17:12.331Z,6.77
2022-09-04T02:20:00.184Z,7.80
2022-09-04T02:22:40.419Z,7.70
2022-09-04T02:25:32.183Z,8.30
2022-09-04T02:28:23.282Z,7.87
2022-09-04T02:31:04.942Z,8.50
2022-09-04T02:33:55.633Z,7.27
2022-09-04T02:36:46.074Z,8.90
2022-09-04T02:39:32.350Z,8.33
2022-09-04T02:42:24.090Z,9.30
2022-09-04T02:45:19.209Z,9.37
2022-09-04T02:47:52.026Z,9.37
2022-09-04T02:50:55.951Z,9.95
2022-09-04T02:53:31.460Z,9.63
2022-09-04T02:56:15.860Z,9.40
2022-09-04T02:58:57.654Z,9.27
2022-09-04T03:01:39.424Z,10.50
2022-09-04T03:04:20.863Z,11.30
2022-09-04T03:07:05.643Z,10.53
2022-09-04T03:09:53.016Z,11.65
2022-09-04T03:12:31.387Z,13.00
2022-09-04T03:15:04.194Z,13.00
2022-09-04T03:17:48.567Z,13.47
2022-09-04T03:20:23.708Z,13.63
2022-09-04T03:23:08.075Z,13.53
2022-09-04T03:25:46.681Z,13.73
2022-09-04T03:28:31.065Z,14.40
2022-09-04T03:31:02.980Z,13.83
2022-09-04T03:33:35.843Z,14.77
2022-09-04T03:36:11.200Z,14.60
2022-09-04T03:39:06.077Z,13.77
2022-09-04T03:42:02.512Z,13.63
2022-09-04T03:44:52.531Z,14.43
2022-09-04T03:47:28.449Z,14.87
2022-09-04T03:50:06.566Z,15.37
2022-09-04T03:52:39.695Z,16.15
2022-09-04T03:55:34.257Z,16.87
2022-09-04T03:58:15.673Z,16.96
2022-09-04T04:01:09.879Z,16.53
2022-09-04T04:03:54.553Z,15.27
2022-09-04T04:06:38.752Z,15.58
2022-09-04T04:09:28.781Z,15.20
2022-09-04T04:12:08.338Z,16.90
2022-09-04T04:14:59.213Z,15.37
2022-09-04T04:17:37.612Z,16.23
2022-09-04T04:20:15.800Z,16.02
2022-09-04T04:22:53.993Z,16.93
2022-09-04T04:25:49.891Z,15.93
2022-09-04T04:30:56.400Z,16.32
2022-09-04T04:33:51.321Z,16.60
2022-09-04T04:36:32.809Z,15.93
2022-09-04T04:39:30.295Z,15.67
2022-09-04T04:42:22.754Z,16.70
2022-09-04T04:45:35.628Z,15.53
2022-09-04T04:48:16.144Z,15.63
2022-09-04T04:50:49.553Z,14.50
2022-09-04T04:53:34.115Z,15.37
2022-09-04T04:59:04.416Z,15.70
2022-09-04T05:02:04.313Z,15.60
2022-09-04T05:04:54.955Z,15.60
2022-09-04T05:07:43.989Z,15.70
2022-09-04T05:10:23.600Z,14.66
2022-09-04T05:12:58.856Z,14.60
2022-09-04T05:15:52.990Z,14.87
2022-09-04T05:18:39.122Z,15.63
2022-09-04T05:21:26.519Z,15.37
2022-09-04T05:23:59.345Z,15.97
2022-09-04T05:26:46.312Z,16.13
2022-09-04T05:32:03.950Z,13.98
2022-09-04T05:34:39.261Z,15.37
2022-09-04T05:37:14.821Z,16.03
2022-09-04T05:42:57.017Z,14.77
2022-09-04T05:45:46.220Z,13.10
2022-09-04T05:48:45.757Z,15.03
2022-09-04T05:51:22.499Z,14.40
2022-09-04T05:54:04.243Z,15.33
2022-09-04T05:56:39.869Z,14.43
2022-09-04T05:59:43.937Z,14.90
2022-09-04T06:02:48.232Z,14.67
2022-09-04T06:05:21.308Z,14.97
2022-09-04T06:08:10.723Z,15.33
2022-09-04T06:10:46.304Z,15.00
2022-09-04T06:13:21.353Z,15.90
2022-09-04T06:16:00.083Z,15.80
2022-09-04T06:18:32.929Z,13.87
2022-09-04T06:21:11.425Z,13.78
2022-09-04T06:24:16.945Z,14.93
2022-09-04T06:26:55.993Z,13.85
2022-09-04T06:29:47.599Z,14.57
2022-09-04T06:32:35.187Z,16.13
2022-09-04T06:35:24.383Z,13.80
2022-09-04T06:38:26.514Z,14.23
2022-09-04T06:41:16.960Z,13.57
2022-09-04T06:43:55.881Z,12.80
2022-09-04T06:46:34.622Z,13.15
2022-09-04T06:49:13.466Z,13.95
2022-09-04T06:52:08.564Z,14.13
2022-09-04T06:54:48.430Z,13.98
2022-09-04T06:57:45.363Z,14.53
2022-09-04T07:00:19.862Z,14.24
2022-09-04T07:03:07.245Z,13.43
2022-09-04T07:05:48.502Z,13.67
2022-09-04T07:08:26.950Z,13.70
2022-09-04T07:11:17.748Z,13.75
2022-09-04T07:14:03.214Z,13.95
2022-09-04T07:16:38.973Z,14.35
2022-09-04T07:19:23.556Z,14.00
2022-09-04T07:22:05.115Z,13.90
2022-09-04T07:24:38.615Z,13.20
2022-09-04T07:27:23.281Z,13.90
2022-09-04T07:29:58.536Z,13.77
2022-09-04T07:32:43.218Z,12.47
2022-09-04T07:35:36.264Z,12.77
2022-09-04T07:38:17.282Z,12.65
2022-09-04T07:40:53.203Z,12.37
2022-09-04T07:43:40.649Z,13.15
2022-09-04T07:46:14.648Z,12.56
2022-09-04T07:48:59.281Z,12.10
2022-09-04T07:51:34.771Z,12.57
2022-09-04T07:57:27.293Z,11.85
2022-09-04T08:00:10.209Z,10.93
2022-09-04T08:03:11.870Z,13.48
2022-09-04T08:06:06.556Z,11.97
2022-09-04T08:08:48.805Z,11.68
2022-09-04T08:11:45.411Z,11.93
2022-09-04T08:14:32.891Z,10.87
2022-09-04T08:17:33.171Z,11.77
2022-09-04T08:20:06.001Z,12.03
2022-09-04T08:22:38.813Z,12.00
2022-09-04T08:25:32.232Z,11.33
2022-09-04T08:28:15.423Z,11.43
2022-09-04T08:30:50.903Z,12.00
2022-09-04T08:33:29.427Z,10.73
2022-09-04T08:36:14.083Z,11.17
2022-09-04T08:38:54.229Z,11.80
2022-09-04T08:41:48.865Z,11.23
2022-09-04T08:44:51.949Z,10.77
2022-09-04T08:47:55.946Z,11.85
2022-09-04T08:50:34.306Z,11.70
2022-09-04T08:53:19.201Z,11.00
2022-09-04T08:56:08.323Z,11.37
2022-09-04T08:59:09.683Z,11.60
2022-09-04T09:01:57.292Z,12.17
2022-09-04T09:04:56.755Z,12.33
2022-09-04T09:07:41.495Z,10.67
2022-09-04T09:10:36.214Z,10.80
2022-09-04T09:13:11.736Z,11.13
2022-09-04T09:15:46.966Z,10.70
2022-09-04T09:18:25.646Z,11.00
2022-09-04T09:21:10.215Z,10.30
2022-09-04T09:23:54.595Z,11.05
2022-09-04T09:26:31.781Z,10.20
2022-09-04T09:29:20.014Z,11.27
2022-09-04T09:32:07.777Z,10.70
2022-09-04T09:34:59.647Z,10.80
2022-09-04T09:37:47.430Z,9.13
2022-09-04T09:40:34.172Z,9.43
2022-09-04T09:43:09.528Z,8.40
2022-09-04T09:45:58.523Z,8.23
2022-09-04T09:48:58.706Z,7.65
2022-09-04T09:51:46.499Z,7.72
2022-09-04T09:54:19.270Z,8.17
2022-09-04T09:57:11.007Z,7.77
2022-09-04T10:00:07.407Z,6.30
2022-09-04T10:03:09.630Z,6.85
2022-09-04T10:06:01.260Z,6.43
2022-09-04T10:08:50.510Z,7.73
2022-09-04T10:11:48.703Z,6.77
2022-09-04T10:14:53.619Z,7.10
2022-09-04T10:17:45.639Z,7.17
2022-09-04T10:20:29.962Z,5.93
2022-09-04T10:23:27.014Z,6.80
2022-09-04T10:26:11.371Z,5.15
2022-09-04T10:29:10.003Z,6.33
2022-09-04T10:31:42.827Z,6.53
2022-09-04T10:34:52.140Z,5.84
2022-09-04T10:37:49.051Z,5.97
2022-09-04T10:40:44.496Z,4.43
2022-09-04T10:43:32.415Z,6.00
2022-09-04T10:46:23.679Z,5.17
2022-09-04T10:49:17.092Z,5.30
2022-09-04T10:51:56.246Z,4.93
2022-09-04T10:54:45.306Z,3.60
2022-09-04T10:57:21.424Z,4.23
2022-09-04T11:03:00.151Z,2.90
2022-09-04T11:05:51.917Z,2.90
2022-09-04T11:08:59.171Z,3.00
2022-09-04T11:11:35.177Z,2.95
2022-09-04T11:14:18.623Z,3.17
2022-09-04T11:16:57.138Z,3.50
2022-09-04T11:19:43.521Z,3.97
2022-09-04T11:22:19.843Z,3.52
2022-09-04T11:25:11.874Z,3.65
2022-09-04T11:28:07.185Z,3.33
2022-09-04T11:31:04.655Z,3.33
2022-09-04T11:33:49.773Z,1.63
2022-09-04T11:36:41.601Z,1.37
2022-09-04T11:39:38.834Z,2.10
2022-09-04T11:42:45.271Z,2.10
2022-09-04T11:45:48.102Z,2.17
2022-09-04T11:48:43.271Z,1.70
2022-09-04T11:51:18.976Z,2.40
2022-09-04T11:54:08.049Z,2.25
2022-09-04T11:57:10.529Z,1.70
2022-09-04T11:59:43.909Z,1.83
2022-09-04T12:02:47.730Z,1.30
2022-09-04T12:05:47.479Z,1.30
2022-09-04T12:08:40.691Z,1.30
2022-09-04T12:11:15.137Z,1.23
2022-09-04T12:13:51.904Z,1.40
2022-09-04T12:16:33.366Z,1.32
2022-09-04T12:19:34.180Z,1.20
2022-09-04T12:22:22.601Z,1.30
2022-09-04T12:25:12.973Z,1.33
2022-09-04T12:27:57.645Z,1.30
2022-09-04T12:30:47.990Z,1.10
2022-09-04T12:33:39.887Z,1.10
2022-09-04T12:36:22.334Z,1.30
2022-09-04T12:39:11.828Z,1.20
2022-09-04T12:41:50.310Z,1.30
2022-09-04T12:44:34.674Z,1.10
2022-09-04T12:47:07.491Z,1.20
2022-09-04T12:49:42.985Z,1.00
2022-09-04T12:52:34.379Z,0.93
2022-09-04T12:55:22.912Z,1.07
2022-09-04T12:58:11.557Z,0.83
2022-09-04T13:00:48.783Z,0.90
2022-09-04T13:03:25.313Z,0.90
2022-09-04T13:06:15.315Z,1.00
2022-09-04T13:09:10.283Z,1.00
2022-09-04T13:12:01.968Z,0.90
2022-09-04T13:14:34.507Z,0.88
2022-09-04T13:17:14.568Z,1.00
2022-09-04T13:20:00.385Z,0.97
2022-09-04T13:22:46.301Z,0.80
2022-09-04T13:25:30.491Z,1.13
2022-09-04T13:28:27.317Z,1.13
2022-09-04T13:31:08.892Z,1.10
2022-09-04T13:34:00.500Z,1.40
2022-09-04T13:36:52.658Z,1.13
2022-09-04T13:39:40.046Z,1.50
2022-09-04T13:42:23.187Z,1.07
2022-09-04T13:45:10.658Z,1.20
2022-09-04T13:47:58.408Z,1.20
2022-09-04T13:50:37.010Z,1.22
2022-09-04T13:53:27.584Z,1.40
2022-09-04T13:56:00.663Z,1.30
2022-09-04T13:58:39.629Z,1.30
2022-09-04T14:01:19.806Z,1.20
2022-09-04T14:03:52.710Z,1.40
2022-09-04T14:06:25.550Z,1.30
2022-09-04T14:09:04.794Z,1.27
2022-09-04T14:11:50.660Z,1.20
2022-09-04T14:14:48.487Z,1.50
2022-09-04T14:17:25.519Z,1.45
2022-09-04T14:20:12.023Z,1.40
2022-09-04T14:22:56.999Z,1.45
2022-09-04T14:25:32.393Z,1.63
2022-09-04T14:28:16.843Z,1.60
2022-09-04T14:31:01.462Z,1.47
2022-09-04T14:33:53.456Z,1.60
2022-09-04T14:36:26.446Z,1.40
2022-09-04T14:39:14.649Z,1.50
2022-09-04T14:42:12.208Z,1.20
2022-09-04T14:45:20.528Z,1.25
2022-09-04T14:50:36.598Z,1.10
2022-09-04T14:53:09.365Z,1.50
2022-09-04T14:55:45.460Z,1.50
2022-09-04T14:58:31.252Z,1.92
2022-09-04T15:01:07.026Z,1.47
2022-09-04T15:03:42.615Z,1.80
2022-09-04T15:06:23.865Z,1.20
2022-09-04T15:08:53.705Z,1.40
2022-09-04T15:11:32.461Z,1.30
2022-09-04T15:14:12.280Z,1.57
2022-09-04T15:16:46.668Z,1.90
2022-09-04T15:19:35.731Z,1.98
2022-09-04T15:22:08.545Z,1.50
2022-09-04T15:24:41.342Z,1.53
2022-09-04T15:27:27.269Z,1.40
2022-09-04T15:30:08.555Z,1.20
2022-09-04T15:32:41.806Z,2.20
2022-09-04T15:35:32.736Z,1.13
2022-09-04T15:38:21.984Z,1.30
2022-09-04T15:41:15.722Z,0.88
2022-09-04T15:43:29.631Z,1.80
2022-09-04T15:46:02.206Z,1.00
2022-09-04T15:48:48.644Z,0.87
2022-09-04T15:51:39.000Z,0.88
2022-09-04T15:54:15.326Z,1.30
2022-09-04T15:56:53.733Z,1.05
2022-09-04T15:59:32.012Z,1.50
2022-09-04T16:02:31.547Z,1.17
2022-09-04T16:05:14.847Z,0.90
2022-09-04T16:07:47.642Z,1.20
2022-09-04T16:10:27.790Z,0.83
2022-09-04T16:13:06.361Z,0.90
2022-09-04T16:15:41.949Z,0.80
2022-09-04T16:18:25.051Z,1.05
2022-09-04T16:21:00.966Z,0.80
2022-09-04T16:23:38.146Z,0.90
2022-09-04T16:26:13.940Z,1.10
2022-09-04T16:28:50.317Z,1.00
2022-09-04T16:31:31.987Z,0.97
2022-09-04T16:34:04.857Z,1.00
2022-09-04T16:36:50.875Z,1.13
2022-09-04T16:39:32.769Z,1.50
2022-09-04T16:42:14.573Z,1.00
2022-09-04T16:45:05.224Z,1.10
2022-09-04T16:48:10.682Z,1.20
2022-09-04T16:51:09.916Z,1.27
2022-09-04T16:53:50.520Z,1.35
2022-09-04T16:56:36.499Z,1.30
2022-09-04T16:59:27.411Z,1.27
2022-09-04T17:02:06.111Z,1.30
2022-09-04T17:04:40.208Z,1.30
2022-09-04T17:07:16.351Z,1.47
2022-09-04T17:10:01.617Z,1.30
2022-09-04T17:12:43.357Z,1.30
2022-09-04T17:15:53.214Z,1.50
2022-09-04T17:18:23.928Z,1.83
2022-09-04T17:23:43.046Z,1.90
2022-09-04T17:29:03.639Z,1.63
2022-09-04T17:29:16.891Z,1.20
2022-09-04T17:31:58.661Z,1.20
2022-09-04T17:40:38.903Z,1.23
2022-09-04T17:40:39.970Z,1.00
2022-09-04T17:40:55.962Z,1.10
2022-09-04T17:43:19.153Z,1.93
2022-09-04T17:45:35.203Z,1.10
2022-09-04T17:48:22.229Z,1.67
2022-09-04T17:53:33.795Z,1.82
2022-09-04T17:55:59.393Z,1.97
2022-09-04T17:58:39.440Z,2.30
2022-09-04T18:01:15.960Z,2.10
2022-09-04T18:06:23.762Z,2.02
2022-09-04T18:08:57.133Z,1.70
2022-09-04T18:11:32.402Z,1.40
2022-09-04T18:14:18.454Z,1.63
2022-09-04T18:17:11.619Z,1.30
2022-09-04T18:19:47.190Z,1.73
2022-09-04T18:22:33.520Z,1.80
2022-09-04T18:25:17.273Z,2.00
2022-09-04T18:27:48.927Z,1.80
2022-09-04T18:36:15.596Z,1.63
2022-09-04T18:37:07.618Z,2.20
2022-09-04T18:37:17.023Z,2.40
2022-09-04T18:38:38.242Z,2.30
2022-09-04T18:50:29.963Z,2.47
2022-09-04T18:50:40.368Z,2.40
2022-09-04T18:50:42.919Z,2.20
2022-09-04T18:51:57.945Z,2.43
2022-09-04T18:54:37.854Z,2.30
2022-09-04T18:57:26.729Z,2.25
2022-09-04T19:00:09.407Z,2.20
2022-09-04T19:03:07.517Z,1.80
2022-09-04T19:05:44.952Z,2.47
2022-09-04T19:11:20.388Z,1.77
2022-09-04T19:13:48.858Z,2.30
2022-09-04T19:16:27.427Z,2.40
2022-09-04T19:19:03.923Z,1.80
2022-09-04T19:21:58.373Z,1.77
2022-09-04T19:24:41.489Z,1.97
2022-09-04T19:27:21.982Z,1.83
2022-09-04T19:29:56.990Z,1.70
2022-09-04T19:32:31.560Z,2.22
2022-09-04T19:35:07.016Z,1.60
2022-09-04T19:39:06.812Z,2.10
2022-09-04T19:45:55.730Z,1.80
2022-09-04T19:46:05.541Z,1.40
2022-09-04T19:46:19.915Z,2.00
2022-09-04T19:49:06.414Z,2.17
2022-09-04T19:53:31.647Z,2.40
2022-09-04T19:54:16.658Z,2.20
2022-09-04T19:57:31.329Z,2.37
2022-09-04T19:59:29.214Z,2.50
2022-09-04T20:02:03.636Z,3.10
2022-09-04T20:04:41.793Z,2.60
2022-09-04T20:07:14.828Z,2.30
2022-09-04T20:09:50.466Z,2.87
2022-09-04T20:12:23.176Z,2.65
2022-09-04T20:14:58.725Z,2.90
2022-09-04T20:17:55.568Z,3.17
2022-09-04T20:20:33.943Z,2.95
2022-09-04T20:23:34.904Z,2.65
2022-09-04T20:25:50.144Z,3.20
2022-09-04T20:28:37.576Z,3.72
2022-09-04T20:31:30.316Z,3.33
2022-09-04T20:33:48.190Z,3.23
2022-09-04T20:36:22.659Z,3.90
2022-09-04T20:38:58.150Z,3.50
2022-09-04T20:41:47.248Z,3.20
2022-09-04T20:44:34.264Z,3.03
2022-09-04T20:52:41.636Z,3.10
2022-09-04T20:52:54.895Z,3.00
2022-09-04T20:53:07.001Z,2.80
2022-09-04T20:55:31.059Z,3.25
2022-09-04T21:03:11.709Z,3.12
2022-09-04T21:03:23.994Z,3.13
2022-09-04T21:03:28.025Z,3.10
2022-09-04T21:05:50.660Z,3.00
2022-09-04T21:08:33.998Z,3.13
2022-09-04T21:11:39.403Z,2.87
2022-09-04T21:13:53.550Z,3.27
2022-09-04T21:16:32.107Z,3.37
2022-09-04T21:19:27.638Z,3.33
2022-09-04T21:22:10.001Z,3.57
2022-09-04T21:25:09.765Z,3.45
2022-09-04T21:27:57.115Z,2.93
2022-09-04T21:30:56.708Z,3.27
2022-09-04T21:33:47.206Z,3.67
2022-09-04T21:36:26.450Z,3.12
2022-09-04T21:39:09.344Z,3.60
2022-09-04T21:41:51.012Z,3.37
2022-09-04T21:44:34.413Z,3.60
2022-09-04T21:47:08.915Z,3.70
2022-09-04T21:49:44.655Z,3.60
2022-09-04T21:52:55.821Z,3.33
2022-09-04T22:01:22.266Z,3.53
2022-09-04T22:02:35.994Z,3.10
2022-09-04T22:02:43.812Z,3.17
2022-09-04T22:03:53.716Z,3.37
2022-09-04T22:07:56.330Z,2.83
2022-09-04T22:13:34.732Z,3.20
2022-09-04T22:13:40.553Z,3.00
2022-09-04T22:15:08.452Z,2.77
2022-09-04T22:17:58.777Z,3.00
2022-09-04T22:20:52.345Z,3.50
2022-09-04T22:23:44.719Z,3.10
2022-09-04T22:26:35.202Z,3.04
2022-09-04T22:29:32.166Z,3.40
2022-09-04T22:32:20.471Z,3.20
2022-09-04T22:35:01.754Z,2.97
2022-09-04T22:37:49.304Z,2.80
2022-09-04T22:40:43.099Z,3.13
2022-09-04T22:43:13.338Z,3.27
2022-09-04T22:45:46.142Z,3.33
2022-09-04T22:48:31.004Z,2.87
2022-09-04T22:51:27.570Z,2.73
2022-09-04T22:54:28.698Z,2.93
2022-09-04T22:57:10.289Z,2.67
2022-09-04T22:59:54.497Z,2.50
2022-09-04T23:03:08.286Z,2.90
2022-09-04T23:06:11.341Z,3.23
2022-09-04T23:13:49.354Z,2.92
2022-09-04T23:14:01.020Z,3.20
2022-09-04T23:14:31.315Z,2.77
2022-09-04T23:17:09.802Z,3.67
2022-09-04T23:23:36.405Z,3.07
2022-09-04T23:26:35.203Z,3.17
2022-09-04T23:26:44.995Z,3.40
2022-09-04T23:28:28.090Z,3.30
2022-09-04T23:31:00.101Z,3.37
2022-09-04T23:33:52.528Z,3.13
2022-09-04T23:36:55.088Z,3.50
2022-09-04T23:39:36.859Z,3.77
2022-09-04T23:42:29.408Z,3.10
2022-09-04T23:45:33.296Z,2.90
2022-09-04T23:48:24.394Z,2.70
2022-09-04T23:51:02.939Z,2.97
2022-09-04T23:53:41.909Z,3.27
2022-09-04T23:56:21.975Z,3.64
2022-09-04T23:59:38.251Z,3.10
